createdAt,value
2018-09-27T00:03:14.178Z,4.00
2018-09-27T00:08:17.404Z,3.77
2018-09-27T00:13:20.622Z,3.23
2018-09-27T00:18:24.961Z,3.73
2018-09-27T00:23:28.143Z,4.03
2018-09-27T00:28:31.727Z,4.17
2018-09-27T00:33:35.020Z,4.80
2018-09-27T00:38:38.228Z,4.73
2018-09-27T00:43:41.955Z,3.87
2018-09-27T00:48:45.179Z,3.30
2018-09-27T00:53:48.441Z,4.97
2018-09-27T00:58:51.774Z,4.23
2018-09-27T01:03:54.983Z,3.23
2018-09-27T01:08:59.198Z,1.97
2018-09-27T01:14:02.408Z,5.50
2018-09-27T01:19:05.614Z,5.57
2018-09-27T01:24:08.827Z,2.57
2018-09-27T01:29:12.025Z,4.73
2018-09-27T01:34:15.261Z,4.27
2018-09-27T01:39:18.457Z,5.20
2018-09-27T01:44:21.667Z,3.97
2018-09-27T01:49:24.916Z,4.33
2018-09-27T01:54:28.146Z,3.50
2018-09-27T01:59:31.409Z,4.30
2018-09-27T02:04:34.734Z,5.23
2018-09-27T02:09:37.982Z,8.27
2018-09-27T02:14:41.245Z,1.97
2018-09-27T02:19:44.954Z,4.30
2018-09-27T02:24:57.914Z,4.47
2018-09-27T02:30:01.150Z,4.90
2018-09-27T02:35:04.415Z,5.03
2018-09-27T02:40:08.517Z,6.97
2018-09-27T02:45:11.822Z,6.53
2018-09-27T02:50:15.119Z,4.93
2018-09-27T02:55:18.311Z,4.07
2018-09-27T03:00:21.548Z,5.63
2018-09-27T03:05:24.813Z,4.60
2018-09-27T03:10:28.286Z,4.53
2018-09-27T03:15:31.522Z,3.33
2018-09-27T03:20:35.441Z,7.13
2018-09-27T03:25:45.090Z,5.07
2018-09-27T03:30:48.778Z,2.93
2018-09-27T03:35:59.778Z,6.27
2018-09-27T03:41:03.058Z,4.67
2018-09-27T03:46:06.242Z,6.80
2018-09-27T03:51:09.537Z,3.50
2018-09-27T03:56:12.782Z,5.77
2018-09-27T04:01:16.518Z,3.93
2018-09-27T04:06:19.803Z,6.17
2018-09-27T04:11:23.530Z,5.40
2018-09-27T04:16:26.838Z,4.97
2018-09-27T04:21:36.126Z,4.27
2018-09-27T04:26:41.130Z,6.20
2018-09-27T04:31:44.371Z,6.37
2018-09-27T04:36:47.564Z,4.60
2018-09-27T04:41:50.763Z,4.77
2018-09-27T04:46:54.002Z,5.67
2018-09-27T04:51:57.227Z,5.00
2018-09-27T04:57:00.378Z,6.07
2018-09-27T05:02:03.551Z,7.93
2018-09-27T05:07:06.816Z,7.40
2018-09-27T05:12:15.996Z,7.17
2018-09-27T05:17:19.214Z,5.03
2018-09-27T05:22:25.203Z,5.13
2018-09-27T05:27:28.409Z,3.80
2018-09-27T05:32:31.622Z,3.80
2018-09-27T05:37:35.235Z,7.80
2018-09-27T05:42:38.621Z,4.70
2018-09-27T05:47:41.836Z,11.10
2018-09-27T05:52:45.391Z,4.90
2018-09-27T05:57:48.872Z,6.00
2018-09-27T06:02:52.087Z,7.73
2018-09-27T06:07:55.231Z,4.53
2018-09-27T06:12:58.407Z,5.23
2018-09-27T06:18:01.616Z,6.17
2018-09-27T06:23:04.869Z,6.60
2018-09-27T06:28:08.075Z,4.10
2018-09-27T06:33:11.268Z,5.83
2018-09-27T06:38:14.507Z,7.63
2018-09-27T06:43:18.745Z,8.77
2018-09-27T06:48:22.107Z,6.90
2018-09-27T06:53:25.201Z,7.97
2018-09-27T06:58:34.422Z,8.37
2018-09-27T07:03:37.655Z,11.43
2018-09-27T07:08:41.032Z,4.67
2018-09-27T07:13:46.682Z,7.17
2018-09-27T07:18:49.898Z,6.93
2018-09-27T07:23:57.559Z,5.17
2018-09-27T07:29:00.911Z,15.13
2018-09-27T07:34:30.799Z,12.03
2018-09-27T07:39:34.026Z,8.93
2018-09-27T07:44:38.810Z,8.77
2018-09-27T07:49:42.018Z,6.17
2018-09-27T07:54:47.110Z,6.07
2018-09-27T07:59:51.259Z,6.30
2018-09-27T08:04:54.483Z,8.17
2018-09-27T08:09:57.707Z,6.57
2018-09-27T08:15:01.014Z,9.43
2018-09-27T08:20:04.382Z,7.50
2018-09-27T08:25:07.615Z,5.73
2018-09-27T08:30:10.850Z,8.07
2018-09-27T08:35:14.083Z,15.33
2018-09-27T08:40:17.333Z,9.37
2018-09-27T08:45:20.852Z,10.93
2018-09-27T08:50:23.785Z,9.90
2018-09-27T08:55:27.090Z,13.33
2018-09-27T09:00:30.356Z,11.83
2018-09-27T09:05:33.610Z,9.57
2018-09-27T09:10:36.820Z,7.97
2018-09-27T09:15:40.075Z,9.03
2018-09-27T09:20:43.253Z,8.97
2018-09-27T09:25:46.575Z,10.20
2018-09-27T09:30:49.771Z,9.03
2018-09-27T09:35:53.130Z,7.97
2018-09-27T09:41:02.024Z,8.57
2018-09-27T09:46:09.399Z,10.23
2018-09-27T09:51:13.681Z,8.67
2018-09-27T09:56:16.941Z,7.57
2018-09-27T10:01:28.297Z,7.23
2018-09-27T10:06:33.545Z,9.63
2018-09-27T10:11:36.870Z,6.27
2018-09-27T10:16:40.153Z,9.87
2018-09-27T10:22:03.331Z,8.07
2018-09-27T10:27:11.267Z,7.50
2018-09-27T10:32:14.550Z,5.97
2018-09-27T10:37:17.828Z,7.37
2018-09-27T10:42:25.407Z,9.07
2018-09-27T10:47:28.687Z,6.33
2018-09-27T10:52:31.926Z,7.90
2018-09-27T10:57:36.963Z,8.03
2018-09-27T11:02:57.107Z,5.03
2018-09-27T11:08:01.002Z,4.17
2018-09-27T11:13:04.225Z,2.90
2018-09-27T11:18:07.622Z,4.80
2018-09-27T11:23:14.619Z,2.67
2018-09-27T11:28:17.869Z,1.93
2018-09-27T11:33:21.257Z,3.20
2018-09-27T11:38:26.319Z,4.27
2018-09-27T11:43:29.958Z,3.40
2018-09-27T11:48:33.273Z,3.83
2018-09-27T11:53:36.556Z,3.10
2018-09-27T11:58:39.961Z,5.43
2018-09-27T12:03:43.155Z,3.10
2018-09-27T12:08:46.416Z,5.10
2018-09-27T12:13:49.742Z,1.80
2018-09-27T12:18:55.422Z,1.70
2018-09-27T12:24:05.013Z,2.60
2018-09-27T12:29:15.626Z,1.63
2018-09-27T12:34:20.266Z,3.53
2018-09-27T12:39:24.767Z,1.77
2018-09-27T12:44:28.159Z,4.03
2018-09-27T12:49:31.356Z,1.03
2018-09-27T12:54:34.690Z,1.60
2018-09-27T12:59:40.073Z,6.50
2018-09-27T13:04:43.431Z,1.33
2018-09-27T13:09:47.235Z,2.30
2018-09-27T13:14:50.408Z,4.20
2018-09-27T13:19:53.751Z,1.37
2018-09-27T13:24:56.873Z,1.10
2018-09-27T13:30:00.176Z,3.13
2018-09-27T13:35:03.375Z,1.73
2018-09-27T13:40:12.150Z,2.10
2018-09-27T13:45:16.870Z,2.67
2018-09-27T13:50:20.147Z,2.63
2018-09-27T13:55:23.369Z,4.77
2018-09-27T14:00:26.603Z,2.60
2018-09-27T14:05:31.182Z,1.77
2018-09-27T14:10:34.380Z,2.63
2018-09-27T14:15:38.902Z,2.27
2018-09-27T14:20:42.196Z,2.87
2018-09-27T14:25:46.964Z,1.67
2018-09-27T14:30:50.184Z,2.97
2018-09-27T14:35:53.462Z,5.13
2018-09-27T14:40:59.383Z,3.10
2018-09-27T14:46:03.214Z,5.10
2018-09-27T14:51:06.441Z,3.53
2018-09-27T14:56:11.717Z,3.33
2018-09-27T15:01:19.151Z,5.27
2018-09-27T15:06:25.094Z,2.67
2018-09-27T15:11:28.949Z,5.93
2018-09-27T15:16:34.445Z,3.67
2018-09-27T15:21:37.682Z,4.17
2018-09-27T15:26:42.378Z,3.70
2018-09-27T15:31:45.686Z,3.77
2018-09-27T15:36:48.977Z,2.17
2018-09-27T15:41:53.319Z,4.50
2018-09-27T15:46:59.914Z,2.60
2018-09-27T15:52:18.207Z,4.20
2018-09-27T15:57:22.906Z,2.70
2018-09-27T16:02:26.171Z,4.57
2018-09-27T16:07:29.408Z,2.90
2018-09-27T16:12:32.613Z,3.93
2018-09-27T16:17:35.811Z,5.80
2018-09-27T16:22:48.655Z,3.47
2018-09-27T16:27:52.558Z,4.63
2018-09-27T16:32:55.753Z,4.27
2018-09-27T16:37:59.003Z,4.80
2018-09-27T16:43:03.395Z,3.47
2018-09-27T16:48:06.903Z,5.10
2018-09-27T16:53:12.167Z,4.03
2018-09-27T16:58:15.480Z,4.63
2018-09-27T17:03:18.791Z,2.13
2018-09-27T17:08:21.999Z,5.83
2018-09-27T17:13:26.082Z,3.27
2018-09-27T17:18:30.006Z,4.40
2018-09-27T17:23:33.942Z,2.60
2018-09-27T17:28:38.887Z,5.40
2018-09-27T17:33:42.199Z,6.67
2018-09-27T17:38:45.474Z,6.10
2018-09-27T17:43:48.779Z,12.53
2018-09-27T17:48:52.058Z,15.20
2018-09-27T17:53:55.959Z,17.30
2018-09-27T17:58:59.314Z,23.23
2018-09-27T18:04:02.946Z,17.77
2018-09-27T18:09:08.822Z,13.07
2018-09-27T18:14:12.386Z,12.37
2018-09-27T18:19:15.938Z,12.40
2018-09-27T18:24:19.215Z,10.93
2018-09-27T18:29:22.729Z,11.20
2018-09-27T18:34:26.282Z,12.20
2018-09-27T18:39:31.631Z,10.17
2018-09-27T18:44:34.923Z,7.83
2018-09-27T18:49:41.259Z,6.23
2018-09-27T18:54:44.522Z,10.47
2018-09-27T18:59:47.931Z,9.70
2018-09-27T19:04:51.467Z,10.53
2018-09-27T19:09:55.766Z,8.90
2018-09-27T19:15:02.084Z,11.20
2018-09-27T19:20:06.093Z,8.77
2018-09-27T19:25:09.633Z,9.87
2018-09-27T19:30:13.940Z,7.30
2018-09-27T19:35:17.194Z,11.40
2018-09-27T19:40:20.898Z,9.13
2018-09-27T19:45:24.168Z,8.23
2018-09-27T19:50:27.334Z,13.80
2018-09-27T19:55:30.518Z,10.50
2018-09-27T20:00:34.732Z,9.07
2018-09-27T20:05:37.975Z,7.60
2018-09-27T20:10:41.279Z,5.93
2018-09-27T20:15:44.478Z,9.83
2018-09-27T20:20:50.279Z,12.17
2018-09-27T20:25:53.494Z,11.50
2018-09-27T20:30:56.712Z,8.40
2018-09-27T20:35:59.922Z,9.10
2018-09-27T20:41:03.289Z,11.20
2018-09-27T20:46:07.760Z,9.27
2018-09-27T20:51:10.949Z,9.50
2018-09-27T20:56:14.194Z,11.03
2018-09-27T21:01:17.370Z,15.93
2018-09-27T21:06:20.786Z,9.07
2018-09-27T21:11:24.027Z,9.67
2018-09-27T21:16:28.335Z,9.33
2018-09-27T21:21:31.527Z,8.63
2018-09-27T21:26:35.804Z,7.77
2018-09-27T21:31:38.987Z,7.27
2018-09-27T21:36:42.342Z,10.93
2018-09-27T21:41:45.506Z,7.40
2018-09-27T21:46:48.697Z,8.47
2018-09-27T21:51:51.938Z,7.60
2018-09-27T21:56:55.198Z,9.93
2018-09-27T22:01:58.437Z,7.27
2018-09-27T22:07:01.767Z,11.10
2018-09-27T22:12:04.924Z,11.07
2018-09-27T22:17:14.756Z,15.93
2018-09-27T22:22:18.021Z,8.63
2018-09-27T22:27:21.176Z,11.23
2018-09-27T22:32:24.383Z,11.60
2018-09-27T22:37:27.590Z,11.57
2018-09-27T22:42:30.772Z,11.07
2018-09-27T22:47:33.945Z,12.00
2018-09-27T22:52:37.295Z,12.67
2018-09-27T22:57:59.830Z,14.77
2018-09-27T23:03:03.058Z,16.30
2018-09-27T23:08:06.331Z,14.40
2018-09-27T23:18:28.754Z,14.63
2018-09-27T23:23:31.994Z,14.97
2018-09-27T23:28:35.170Z,16.13
2018-09-27T23:33:38.349Z,13.60
2018-09-27T23:38:41.547Z,15.63
2018-09-27T23:43:44.750Z,13.70
2018-09-27T23:48:48.035Z,14.70
2018-09-27T23:53:52.251Z,15.63
2018-09-27T23:58:55.503Z,14.67
